createdAt,value
2022-10-09T00:05:29.272Z,99.14
2022-10-09T00:15:32.434Z,99.16
2022-10-09T00:25:36.115Z,98.53
2022-10-09T00:35:39.945Z,97.58
2022-10-09T00:45:53.523Z,97.07
2022-10-09T00:55:57.797Z,97.14
2022-10-09T01:06:06.763Z,97.37
2022-10-09T01:16:25.509Z,97.63
2022-10-09T01:26:39.460Z,97.76
2022-10-09T01:36:44.200Z,97.99
2022-10-09T01:46:47.895Z,98.25
2022-10-09T01:56:53.388Z,98.10
2022-10-09T02:06:57.070Z,97.99
2022-10-09T02:17:12.952Z,98.29
2022-10-09T02:27:18.944Z,98.81
2022-10-09T02:37:22.102Z,99.34
2022-10-09T02:47:25.361Z,99.71
2022-10-09T02:57:28.427Z,100.00
2022-10-09T03:07:31.647Z,100.00
2022-10-09T03:17:34.677Z,100.00
2022-10-09T03:27:37.782Z,100.00
2022-10-09T03:37:40.774Z,100.00
2022-10-09T03:47:43.754Z,100.00
2022-10-09T03:57:46.993Z,100.00
2022-10-09T04:07:50.291Z,100.00
2022-10-09T04:17:53.558Z,100.00
2022-10-09T04:27:56.975Z,100.00
2022-10-09T04:37:59.965Z,100.00
2022-10-09T04:48:03.040Z,100.00
2022-10-09T04:58:06.582Z,100.00
2022-10-09T05:08:09.638Z,100.00
2022-10-09T05:18:12.750Z,100.00
2022-10-09T05:28:15.808Z,100.00
2022-10-09T05:38:19.532Z,100.00
2022-10-09T05:48:22.752Z,100.00
2022-10-09T05:58:25.703Z,100.00
2022-10-09T06:08:28.727Z,100.00
2022-10-09T06:18:32.874Z,100.00
2022-10-09T06:28:36.805Z,100.00
2022-10-09T06:38:41.117Z,100.00
2022-10-09T06:48:44.120Z,100.00
2022-10-09T06:58:48.045Z,100.00
2022-10-09T07:08:54.221Z,99.78
2022-10-09T07:18:58.214Z,98.91
2022-10-09T07:29:02.474Z,98.97
2022-10-09T07:39:06.239Z,98.73
2022-10-09T07:49:09.347Z,97.89
2022-10-09T07:59:14.924Z,96.60
2022-10-09T08:09:18.542Z,96.56
2022-10-09T08:19:29.220Z,95.61
2022-10-09T08:29:35.536Z,95.54
2022-10-09T08:39:41.037Z,95.18
2022-10-09T08:49:53.672Z,94.52
2022-10-09T08:59:56.726Z,93.15
2022-10-09T09:10:12.015Z,92.15
2022-10-09T09:20:24.029Z,91.62
2022-10-09T09:30:41.085Z,90.48
2022-10-09T09:40:47.268Z,90.01
2022-10-09T09:51:15.824Z,89.72
2022-10-09T10:01:32.308Z,89.63
2022-10-09T10:11:35.940Z,88.69
2022-10-09T10:21:55.361Z,88.09
2022-10-09T10:32:17.718Z,87.18
2022-10-09T10:43:02.829Z,87.31
2022-10-09T10:53:36.934Z,86.81
2022-10-09T11:04:23.644Z,86.62
2022-10-09T11:14:41.256Z,86.17
2022-10-09T11:25:02.099Z,86.01
2022-10-09T11:35:49.684Z,85.52
2022-10-09T11:46:02.112Z,85.49
2022-10-09T11:56:07.871Z,84.37
2022-10-09T12:06:17.367Z,82.99
2022-10-09T12:16:36.077Z,82.58
2022-10-09T12:26:40.889Z,82.00
2022-10-09T12:36:43.925Z,80.55
2022-10-09T12:46:47.055Z,80.62
2022-10-09T12:56:50.464Z,79.45
2022-10-09T13:06:54.548Z,78.18
2022-10-09T13:16:57.664Z,77.76
2022-10-09T13:27:00.757Z,76.97
2022-10-09T13:37:03.937Z,76.62
2022-10-09T13:47:07.109Z,77.41
2022-10-09T13:57:10.117Z,77.32
2022-10-09T14:07:13.280Z,77.16
2022-10-09T14:17:16.798Z,76.56
2022-10-09T14:27:19.839Z,76.64
2022-10-09T14:37:40.661Z,76.90
2022-10-09T14:47:45.063Z,77.15
2022-10-09T14:57:47.998Z,77.08
2022-10-09T15:07:51.132Z,77.55
2022-10-09T15:17:54.382Z,77.72
2022-10-09T15:28:01.878Z,78.34
2022-10-09T15:38:06.367Z,78.66
2022-10-09T15:48:27.514Z,78.60
2022-10-09T15:58:30.539Z,79.39
2022-10-09T16:08:56.548Z,80.78
2022-10-09T16:19:04.240Z,82.12
2022-10-09T16:29:07.689Z,83.03
2022-10-09T16:39:10.795Z,83.58
2022-10-09T16:49:20.047Z,84.49
2022-10-09T16:59:38.409Z,85.41
2022-10-09T17:09:59.606Z,86.44
2022-10-09T17:20:02.957Z,87.07
2022-10-09T17:30:07.093Z,87.07
2022-10-09T17:40:10.629Z,87.47
2022-10-09T17:50:13.757Z,88.35
2022-10-09T18:00:50.486Z,89.42
2022-10-09T18:11:05.815Z,89.46
2022-10-09T18:21:11.474Z,89.91
2022-10-09T18:31:20.817Z,89.94
2022-10-09T18:41:24.611Z,90.32
2022-10-09T18:51:28.890Z,89.74
2022-10-09T19:01:32.205Z,89.89
2022-10-09T19:11:35.562Z,90.55
2022-10-09T19:21:43.991Z,91.00
2022-10-09T19:31:47.228Z,91.12
2022-10-09T19:42:14.921Z,91.44
2022-10-09T19:52:18.386Z,91.27
2022-10-09T20:02:21.634Z,91.09
2022-10-09T20:12:25.550Z,91.13
2022-10-09T20:22:28.845Z,91.51
2022-10-09T20:32:36.514Z,91.71
2022-10-09T20:42:39.901Z,91.84
2022-10-09T20:52:42.849Z,92.39
2022-10-09T21:02:45.822Z,92.64
2022-10-09T21:12:49.041Z,92.61
2022-10-09T21:22:52.650Z,92.82
2022-10-09T21:32:56.699Z,93.10
2022-10-09T21:42:59.790Z,92.95
2022-10-09T21:53:04.297Z,92.75
2022-10-09T22:03:07.324Z,92.94
2022-10-09T22:13:10.344Z,92.92
2022-10-09T22:23:14.302Z,93.25
2022-10-09T22:33:17.375Z,93.08
2022-10-09T22:43:20.366Z,91.94
2022-10-09T22:53:23.400Z,93.01
2022-10-09T23:03:26.443Z,93.41
2022-10-09T23:13:29.483Z,94.38
2022-10-09T23:23:34.178Z,94.35
2022-10-09T23:33:42.517Z,94.24
2022-10-09T23:43:46.818Z,94.36
2022-10-09T23:53:49.858Z,94.62
